createdAt,value
2024-03-06T00:02:12.729Z,121.43
2024-03-06T00:04:44.579Z,114.37
2024-03-06T00:07:17.049Z,112.20
2024-03-06T00:09:49.046Z,112.27
2024-03-06T00:12:20.839Z,108.67
2024-03-06T00:14:52.590Z,107.97
2024-03-06T00:17:24.340Z,107.30
2024-03-06T00:19:56.135Z,738.53
2024-03-06T00:22:28.000Z,114.90
2024-03-06T00:24:59.776Z,105.50
2024-03-06T00:27:31.510Z,740.13
2024-03-06T00:30:03.502Z,746.87
2024-03-06T00:32:35.267Z,742.53
2024-03-06T00:35:07.492Z,1999.90
2024-03-06T00:37:39.343Z,1999.90
2024-03-06T00:40:11.748Z,1999.90
2024-03-06T00:42:43.506Z,1999.90
2024-03-06T00:45:15.322Z,1999.90
2024-03-06T00:47:47.138Z,1999.90
2024-03-06T00:50:19.610Z,1999.90
2024-03-06T00:52:51.493Z,1999.90
2024-03-06T00:55:23.230Z,1999.90
2024-03-06T00:57:54.990Z,1999.90
2024-03-06T01:00:26.758Z,1999.90
2024-03-06T01:02:58.678Z,1999.90
2024-03-06T01:05:30.429Z,1999.90
2024-03-06T01:08:02.301Z,1999.90
2024-03-06T01:10:34.295Z,1999.90
2024-03-06T01:13:06.134Z,1999.90
2024-03-06T01:15:38.888Z,1999.90
2024-03-06T01:18:10.719Z,1999.90
2024-03-06T01:20:42.482Z,1999.90
2024-03-06T01:23:14.279Z,1999.90
2024-03-06T01:25:46.134Z,741.60
2024-03-06T01:28:19.344Z,114.90
2024-03-06T01:30:51.088Z,113.20
2024-03-06T01:33:23.097Z,109.57
2024-03-06T01:35:54.940Z,110.47
2024-03-06T01:38:26.718Z,102.40
2024-03-06T01:40:58.668Z,103.30
2024-03-06T01:43:40.507Z,103.13
2024-03-06T01:46:12.322Z,97.93
2024-03-06T01:48:44.210Z,102.07
2024-03-06T01:51:16.119Z,108.40
2024-03-06T01:53:48.603Z,107.77
2024-03-06T01:56:20.635Z,107.70
2024-03-06T01:58:53.097Z,105.97
2024-03-06T02:01:25.553Z,107.07
2024-03-06T02:03:57.546Z,108.53
2024-03-06T02:06:30.285Z,99.37
2024-03-06T02:09:02.130Z,104.10
2024-03-06T02:11:34.852Z,102.97
2024-03-06T02:14:10.772Z,104.33
2024-03-06T02:16:42.764Z,106.63
2024-03-06T02:19:15.380Z,103.43
2024-03-06T02:21:47.613Z,99.73
2024-03-06T02:24:19.797Z,99.40
2024-03-06T02:26:51.663Z,104.00
2024-03-06T02:29:26.693Z,100.43
2024-03-06T02:31:59.198Z,96.80
2024-03-06T02:34:31.342Z,104.17
2024-03-06T02:37:03.062Z,97.00
2024-03-06T02:39:35.094Z,95.87
2024-03-06T02:42:08.097Z,95.27
2024-03-06T02:44:39.861Z,91.67
2024-03-06T02:47:12.078Z,91.47
2024-03-06T02:49:43.926Z,93.07
2024-03-06T02:52:15.721Z,97.73
2024-03-06T02:54:47.446Z,93.80
2024-03-06T02:57:19.209Z,95.83
2024-03-06T02:59:51.239Z,96.37
2024-03-06T03:02:23.302Z,95.13
2024-03-06T03:04:55.103Z,96.07
2024-03-06T03:07:26.921Z,96.80
2024-03-06T03:09:58.676Z,98.33
2024-03-06T03:12:30.427Z,105.93
2024-03-06T03:15:02.212Z,150.77
2024-03-06T03:17:34.907Z,123.67
2024-03-06T03:20:11.673Z,135.53
2024-03-06T03:22:44.671Z,138.77
2024-03-06T03:25:16.486Z,152.80
2024-03-06T03:27:48.318Z,131.03
2024-03-06T03:30:23.094Z,127.10
2024-03-06T03:32:55.751Z,130.23
2024-03-06T03:35:27.804Z,121.90
2024-03-06T03:37:59.571Z,121.63
2024-03-06T03:40:31.384Z,114.60
2024-03-06T03:43:07.533Z,118.57
2024-03-06T03:45:39.722Z,114.10
2024-03-06T03:48:11.501Z,117.93
2024-03-06T03:50:43.275Z,123.00
2024-03-06T03:53:15.081Z,131.93
2024-03-06T03:55:46.905Z,138.03
2024-03-06T03:58:18.653Z,154.67
2024-03-06T04:00:53.910Z,134.80
2024-03-06T04:03:25.946Z,128.53
2024-03-06T04:05:57.913Z,129.20
2024-03-06T04:08:29.644Z,137.40
2024-03-06T04:11:01.436Z,152.57
2024-03-06T04:13:38.073Z,142.40
2024-03-06T04:16:09.898Z,146.70
2024-03-06T04:18:41.630Z,145.87
2024-03-06T04:21:15.591Z,203.73
2024-03-06T04:23:47.450Z,167.93
2024-03-06T04:26:19.311Z,192.27
2024-03-06T04:28:51.144Z,161.17
2024-03-06T04:31:23.009Z,164.07
2024-03-06T04:33:54.767Z,232.30
2024-03-06T04:36:26.510Z,181.40
2024-03-06T04:38:58.304Z,223.57
2024-03-06T04:41:30.116Z,222.10
2024-03-06T04:44:02.234Z,235.33
2024-03-06T04:46:34.050Z,239.13
2024-03-06T04:49:05.796Z,198.53
2024-03-06T04:51:37.608Z,218.57
2024-03-06T04:54:09.748Z,187.77
2024-03-06T04:56:41.493Z,178.63
2024-03-06T04:59:13.351Z,185.03
2024-03-06T05:01:45.513Z,194.83
2024-03-06T05:58:09.067Z,191.83
2024-03-06T06:00:42.127Z,167.47
2024-03-06T06:03:14.294Z,172.50
2024-03-06T06:05:46.471Z,194.30
2024-03-06T06:08:18.300Z,188.33
2024-03-06T06:10:52.780Z,184.83
2024-03-06T06:13:24.615Z,195.10
2024-03-06T06:16:00.192Z,200.83
2024-03-06T06:18:33.123Z,212.73
2024-03-06T06:21:08.442Z,209.93
2024-03-06T06:23:40.292Z,217.97
2024-03-06T06:26:13.070Z,235.80
2024-03-06T06:28:44.885Z,194.10
2024-03-06T06:31:16.660Z,200.93
2024-03-06T06:33:48.407Z,218.90
2024-03-06T06:36:20.794Z,228.37
2024-03-06T06:38:53.842Z,213.03
2024-03-06T06:41:26.125Z,197.30
2024-03-06T06:43:57.906Z,167.20
2024-03-06T06:46:30.320Z,162.90
2024-03-06T06:49:02.075Z,152.97
2024-03-06T06:51:33.841Z,143.17
2024-03-06T06:54:05.652Z,133.57
2024-03-06T06:56:37.448Z,137.53
2024-03-06T06:59:09.318Z,121.73
2024-03-06T07:01:41.954Z,130.43
2024-03-06T07:04:13.710Z,1999.90
2024-03-06T07:06:45.438Z,1999.90
2024-03-06T07:09:17.194Z,1999.90
2024-03-06T07:11:49.248Z,1999.90
2024-03-06T07:14:21.132Z,1999.90
2024-03-06T07:16:52.894Z,1999.90
2024-03-06T07:19:24.656Z,1999.90
2024-03-06T07:21:56.517Z,1999.90
2024-03-06T07:24:28.347Z,1999.90
2024-03-06T07:27:02.520Z,1999.90
2024-03-06T07:29:34.410Z,1999.90
2024-03-06T07:32:06.422Z,1999.90
2024-03-06T07:34:38.259Z,1999.90
2024-03-06T07:37:10.068Z,1999.90
2024-03-06T07:39:42.265Z,1999.90
2024-03-06T07:42:14.075Z,1999.90
2024-03-06T07:44:45.884Z,1999.90
2024-03-06T07:47:17.789Z,1999.90
2024-03-06T07:49:51.671Z,1999.90
2024-03-06T07:52:23.444Z,1999.90
2024-03-06T07:54:55.167Z,1999.90
2024-03-06T07:57:26.901Z,1999.90
2024-03-06T07:59:58.640Z,1999.90
2024-03-06T08:02:30.697Z,1999.90
2024-03-06T08:05:02.644Z,1999.90
2024-03-06T08:07:34.485Z,1999.90
2024-03-06T08:10:06.844Z,1999.90
2024-03-06T08:12:38.601Z,1999.90
2024-03-06T08:15:14.424Z,1999.90
2024-03-06T08:17:46.404Z,1999.90
2024-03-06T08:20:18.435Z,1999.90
2024-03-06T08:22:50.915Z,1999.90
2024-03-06T08:25:23.113Z,1999.90
2024-03-06T08:27:54.847Z,1999.90
2024-03-06T08:30:26.737Z,1999.90
2024-03-06T08:32:58.869Z,1999.90
2024-03-06T08:35:31.328Z,1999.90
2024-03-06T08:38:03.351Z,1999.90
2024-03-06T08:40:35.822Z,1999.90
2024-03-06T08:43:07.593Z,1999.90
2024-03-06T08:45:39.662Z,1999.90
2024-03-06T08:48:12.543Z,1999.90
2024-03-06T08:50:44.553Z,1999.90
2024-03-06T08:53:17.870Z,1999.90
2024-03-06T08:55:50.510Z,1999.90
2024-03-06T08:58:22.348Z,1999.90
2024-03-06T09:00:54.867Z,1999.90
2024-03-06T09:03:26.649Z,1999.90
2024-03-06T09:05:58.452Z,1999.90
2024-03-06T09:08:31.092Z,1999.90
2024-03-06T09:11:03.778Z,1999.90
2024-03-06T09:13:35.565Z,1999.90
2024-03-06T09:16:07.547Z,1999.90
2024-03-06T09:18:39.332Z,1999.90
2024-03-06T09:21:11.191Z,1999.90
2024-03-06T09:23:43.203Z,1999.90
2024-03-06T09:26:15.079Z,1999.90
2024-03-06T09:28:46.964Z,1999.90
2024-03-06T09:31:18.728Z,1999.90
2024-03-06T09:33:50.602Z,1999.90
2024-03-06T09:36:22.440Z,1999.90
2024-03-06T09:38:54.216Z,1999.90
2024-03-06T09:41:26.415Z,1999.90
2024-03-06T09:43:59.800Z,1999.90
2024-03-06T09:46:31.834Z,1999.90
2024-03-06T09:49:04.279Z,1999.90
2024-03-06T09:51:36.418Z,1999.90
2024-03-06T09:54:08.992Z,1999.90
2024-03-06T09:56:41.804Z,1999.90
2024-03-06T09:59:14.674Z,1999.90
2024-03-06T10:01:51.946Z,1999.90
2024-03-06T10:04:27.420Z,1999.90
2024-03-06T10:07:00.216Z,1999.90
2024-03-06T10:09:34.281Z,1999.90
2024-03-06T10:12:07.451Z,1999.90
2024-03-06T10:14:39.914Z,1999.90
2024-03-06T10:17:11.737Z,1999.90
2024-03-06T10:19:51.372Z,1999.90
2024-03-06T10:22:27.099Z,1999.90
2024-03-06T10:24:58.854Z,1999.90
2024-03-06T10:27:30.603Z,1999.90
2024-03-06T10:30:07.338Z,1999.90
2024-03-06T10:32:39.182Z,1999.90
2024-03-06T10:35:20.166Z,1999.90
2024-03-06T10:37:54.794Z,1999.90
2024-03-06T10:40:30.453Z,1999.90
2024-03-06T10:43:04.335Z,1999.90
2024-03-06T10:45:44.467Z,1999.90
2024-03-06T10:48:17.713Z,1999.90
2024-03-06T10:50:51.176Z,1999.90
2024-03-06T10:53:26.169Z,1999.90
2024-03-06T10:55:59.840Z,1999.90
2024-03-06T10:58:32.276Z,1999.90
2024-03-06T11:01:05.139Z,1999.90
2024-03-06T11:03:38.333Z,1999.90
2024-03-06T11:06:11.406Z,1999.90
2024-03-06T11:08:43.331Z,1999.90
2024-03-06T11:11:23.309Z,1999.90
2024-03-06T11:14:02.692Z,1999.90
2024-03-06T11:17:03.585Z,1999.90
2024-03-06T11:20:00.567Z,1999.90
2024-03-06T11:22:57.584Z,1999.90
2024-03-06T11:25:56.528Z,1999.90
2024-03-06T11:28:30.579Z,1999.90
2024-03-06T11:31:06.612Z,1999.90
2024-03-06T11:33:48.826Z,1999.90
2024-03-06T11:36:23.696Z,1999.90
2024-03-06T11:39:09.893Z,1999.90
2024-03-06T11:41:44.578Z,1999.90
2024-03-06T11:44:18.341Z,1999.90
2024-03-06T11:47:04.513Z,1999.90
2024-03-06T11:49:38.256Z,1999.90
2024-03-06T11:52:11.143Z,1999.90
2024-03-06T11:54:43.075Z,1999.90
2024-03-06T11:57:17.234Z,1999.90
2024-03-06T11:59:49.160Z,1999.90
2024-03-06T12:02:21.162Z,1999.90
2024-03-06T12:04:53.101Z,1999.90
2024-03-06T12:07:24.861Z,1999.90
2024-03-06T12:09:58.899Z,1999.90
2024-03-06T12:12:31.088Z,1999.90
2024-03-06T12:15:05.219Z,1999.90
2024-03-06T12:17:47.802Z,1999.90
2024-03-06T12:20:19.991Z,1999.90
2024-03-06T12:22:53.310Z,1999.90
2024-03-06T12:25:27.195Z,1999.90
2024-03-06T12:28:10.458Z,1999.90
2024-03-06T12:30:45.585Z,1999.90
2024-03-06T12:33:18.236Z,1999.90
2024-03-06T12:36:01.945Z,1999.90
2024-03-06T12:38:34.644Z,1999.90
2024-03-06T12:41:07.346Z,1999.90
2024-03-06T12:43:39.275Z,1999.90
2024-03-06T12:46:11.094Z,1999.90
2024-03-06T12:48:43.029Z,1999.90
2024-03-06T12:51:14.932Z,1999.90
2024-03-06T12:53:46.814Z,1999.90
2024-03-06T12:56:18.993Z,1999.90
2024-03-06T12:58:50.789Z,1999.90
2024-03-06T13:01:22.741Z,1999.90
2024-03-06T13:03:55.232Z,1999.90
2024-03-06T13:06:30.482Z,1999.90
2024-03-06T13:09:02.333Z,1999.90
2024-03-06T13:11:34.320Z,1999.90
2024-03-06T13:14:06.160Z,1999.90
2024-03-06T13:16:37.930Z,1999.90
2024-03-06T13:19:09.762Z,1999.90
2024-03-06T13:21:41.529Z,1999.90
2024-03-06T13:24:13.277Z,1999.90
2024-03-06T13:26:45.232Z,1999.90
2024-03-06T13:29:17.904Z,1999.90
2024-03-06T13:31:49.711Z,1999.90
2024-03-06T13:34:21.468Z,1999.90
2024-03-06T13:36:54.177Z,1999.90
2024-03-06T13:39:26.257Z,1999.90
2024-03-06T13:41:58.941Z,1999.90
2024-03-06T13:44:30.884Z,1999.90
2024-03-06T13:47:03.467Z,1999.90
2024-03-06T13:49:42.859Z,1999.90
2024-03-06T13:52:14.809Z,1999.90
2024-03-06T13:54:48.058Z,1999.90
2024-03-06T13:57:19.845Z,1999.90
2024-03-06T13:59:51.840Z,1999.90
2024-03-06T14:02:23.648Z,1999.90
2024-03-06T14:04:55.495Z,1999.90
2024-03-06T14:07:28.116Z,1999.90
2024-03-06T14:10:02.567Z,1999.90
2024-03-06T14:12:38.908Z,1999.90
2024-03-06T14:15:13.771Z,1999.90
2024-03-06T14:17:46.270Z,1999.90
2024-03-06T14:20:18.500Z,1999.90
2024-03-06T14:22:50.402Z,1999.90
2024-03-06T14:25:22.159Z,1999.90
2024-03-06T14:27:53.957Z,1999.90
2024-03-06T14:30:25.996Z,1999.90
2024-03-06T14:32:58.014Z,1999.90
2024-03-06T14:35:30.066Z,1999.90
2024-03-06T14:38:01.912Z,1999.90
2024-03-06T14:40:34.933Z,1999.90
2024-03-06T14:43:10.177Z,1999.90
2024-03-06T14:45:44.752Z,1999.90
2024-03-06T14:50:48.362Z,1999.90
2024-03-06T14:53:20.559Z,1999.90
2024-03-06T14:55:52.377Z,1999.90
2024-03-06T14:58:24.468Z,1999.90
2024-03-06T15:00:56.323Z,1999.90
2024-03-06T15:03:28.173Z,1999.90
2024-03-06T15:06:00.116Z,1999.90
2024-03-06T15:08:32.030Z,1999.90
2024-03-06T15:11:04.232Z,1999.90
2024-03-06T15:13:36.095Z,1999.90
2024-03-06T15:16:09.585Z,1999.90
2024-03-06T15:18:42.682Z,1999.90
2024-03-06T15:21:14.516Z,1999.90
2024-03-06T15:23:46.399Z,1999.90
2024-03-06T15:26:18.381Z,1999.90
2024-03-06T15:28:50.325Z,1999.90
2024-03-06T15:31:22.188Z,1999.90
2024-03-06T15:33:54.256Z,1999.90
2024-03-06T15:36:25.986Z,1999.90
2024-03-06T15:38:59.663Z,1999.90
2024-03-06T15:41:31.505Z,1999.90
2024-03-06T15:44:03.321Z,1999.90
2024-03-06T15:46:35.515Z,1999.90
2024-03-06T15:49:20.371Z,1999.90
2024-03-06T15:51:52.146Z,1999.90
2024-03-06T15:54:23.987Z,1999.90
2024-03-06T15:56:55.830Z,1999.90
2024-03-06T15:59:29.373Z,1999.90
2024-03-06T16:02:02.073Z,1999.90
2024-03-06T16:04:33.937Z,1999.90
2024-03-06T16:07:06.842Z,1999.90
2024-03-06T16:09:39.615Z,1999.90
2024-03-06T16:12:11.459Z,1999.90
2024-03-06T16:14:43.517Z,1999.90
2024-03-06T16:17:15.399Z,1999.90
2024-03-06T16:19:47.453Z,1999.90
2024-03-06T16:22:19.238Z,1999.90
2024-03-06T16:24:52.931Z,1999.90
2024-03-06T16:27:24.748Z,1999.90
2024-03-06T16:29:57.100Z,1999.90
2024-03-06T16:32:29.540Z,1999.90
2024-03-06T16:35:01.383Z,1999.90
2024-03-06T16:37:33.181Z,1999.90
2024-03-06T16:40:05.613Z,1999.90
2024-03-06T16:42:37.369Z,1999.90
2024-03-06T16:45:11.145Z,1999.90
2024-03-06T16:47:43.009Z,1999.90
2024-03-06T16:50:15.396Z,1999.90
2024-03-06T16:52:47.371Z,1999.90
2024-03-06T16:55:19.248Z,1999.90
2024-03-06T16:57:51.124Z,1999.90
2024-03-06T17:00:24.321Z,1999.90
2024-03-06T17:02:59.446Z,1999.90
2024-03-06T17:05:32.130Z,1999.90
2024-03-06T17:08:04.501Z,1999.90
2024-03-06T17:10:36.391Z,1999.90
2024-03-06T17:13:08.290Z,1999.90
2024-03-06T17:15:41.207Z,1999.90
2024-03-06T17:18:13.326Z,1999.90
2024-03-06T17:20:45.621Z,1999.90
2024-03-06T17:23:18.301Z,1999.90
2024-03-06T17:25:50.471Z,1999.90
2024-03-06T17:28:22.364Z,1999.90
2024-03-06T17:30:54.728Z,1999.90
2024-03-06T17:33:26.716Z,1999.90
2024-03-06T17:36:00.411Z,1999.90
2024-03-06T17:38:32.919Z,1999.90
2024-03-06T17:41:04.874Z,1999.90
2024-03-06T17:43:36.740Z,1999.90
2024-03-06T17:46:08.494Z,1999.90
2024-03-06T17:48:40.328Z,1999.90
2024-03-06T17:51:12.218Z,1999.90
2024-03-06T17:53:44.127Z,1999.90
2024-03-06T17:56:16.024Z,1999.90
2024-03-06T17:58:47.791Z,1999.90
2024-03-06T18:01:24.470Z,1999.90
2024-03-06T18:03:56.803Z,1999.90
2024-03-06T18:06:28.957Z,1999.90
2024-03-06T18:09:00.706Z,1999.90
2024-03-06T18:11:33.184Z,1999.90
2024-03-06T18:14:05.397Z,1999.90
2024-03-06T18:16:39.840Z,1999.90
2024-03-06T18:19:12.035Z,1999.90
2024-03-06T18:21:47.219Z,1999.90
2024-03-06T18:24:19.752Z,1999.90
2024-03-06T18:26:51.552Z,1999.90
2024-03-06T18:29:23.516Z,1999.90
2024-03-06T18:31:55.410Z,1999.90
2024-03-06T18:34:27.173Z,1999.90
2024-03-06T18:36:59.440Z,1999.90
2024-03-06T18:39:31.305Z,1999.90
2024-03-06T18:44:37.782Z,1999.90
2024-03-06T18:47:10.548Z,1999.90
2024-03-06T18:49:42.461Z,1999.90
2024-03-06T18:52:14.291Z,1999.90
2024-03-06T18:54:46.127Z,1999.90
2024-03-06T18:57:17.992Z,1999.90
2024-03-06T18:59:50.701Z,1999.90
2024-03-06T19:02:22.685Z,1999.90
2024-03-06T19:04:54.594Z,1999.90
2024-03-06T19:07:26.348Z,1999.90
2024-03-06T19:09:59.826Z,1999.90
2024-03-06T19:12:31.630Z,1999.90
2024-03-06T19:15:03.785Z,1999.90
2024-03-06T19:17:36.290Z,1999.90
2024-03-06T19:20:13.795Z,1999.90
2024-03-06T19:22:46.287Z,1999.90
2024-03-06T19:25:20.090Z,1999.90
2024-03-06T19:27:52.310Z,1999.90
2024-03-06T19:30:24.085Z,1999.90
2024-03-06T19:32:56.549Z,1999.90
2024-03-06T19:35:28.809Z,1999.90
2024-03-06T19:38:00.634Z,1999.90
2024-03-06T19:40:32.462Z,1999.90
2024-03-06T19:43:04.574Z,1999.90
2024-03-06T19:45:36.333Z,1999.90
2024-03-06T19:48:08.363Z,1999.90
2024-03-06T19:50:41.690Z,1999.90
2024-03-06T19:53:14.334Z,1999.90
2024-03-06T19:55:48.808Z,1999.90
2024-03-06T19:58:20.634Z,1999.90
2024-03-06T20:00:52.396Z,1999.90
2024-03-06T20:03:24.165Z,1999.90
2024-03-06T20:05:56.076Z,1999.90
2024-03-06T20:08:28.010Z,1999.90
2024-03-06T20:10:59.865Z,1999.90
2024-03-06T20:13:31.640Z,1999.90
2024-03-06T20:16:03.556Z,1999.90
2024-03-06T20:18:36.488Z,1999.90
2024-03-06T20:21:09.782Z,1999.90
2024-03-06T20:23:41.621Z,1999.90
2024-03-06T20:26:13.471Z,1999.90
2024-03-06T20:28:47.542Z,1999.90
2024-03-06T20:31:19.602Z,1999.90
2024-03-06T20:33:52.035Z,1999.90
2024-03-06T20:36:24.739Z,1999.90
2024-03-06T20:38:56.543Z,1999.90
2024-03-06T20:41:28.722Z,1999.90
2024-03-06T20:44:00.568Z,1999.90
2024-03-06T20:46:32.327Z,1999.90
2024-03-06T20:49:04.362Z,1999.90
2024-03-06T20:51:36.194Z,1999.90
2024-03-06T20:54:07.945Z,1999.90
2024-03-06T20:56:39.751Z,1999.90
2024-03-06T20:59:11.870Z,1999.90
2024-03-06T21:01:45.946Z,1999.90
2024-03-06T21:04:17.767Z,1999.90
2024-03-06T21:06:49.576Z,1999.90
2024-03-06T21:09:23.834Z,1999.90
2024-03-06T21:11:56.303Z,1999.90
2024-03-06T21:14:28.166Z,1999.90
2024-03-06T21:17:03.427Z,1999.90
2024-03-06T21:19:38.510Z,1999.90
2024-03-06T21:22:10.379Z,1999.90
2024-03-06T21:24:42.383Z,1999.90
2024-03-06T21:27:14.170Z,1999.90
2024-03-06T21:29:49.550Z,1999.90
2024-03-06T21:32:21.334Z,1999.90
2024-03-06T21:34:53.093Z,1999.90
2024-03-06T21:37:24.957Z,1999.90
2024-03-06T21:39:56.829Z,1999.90
2024-03-06T21:42:28.593Z,1999.90
2024-03-06T21:45:00.367Z,1999.90
2024-03-06T21:47:32.171Z,1999.90
2024-03-06T21:50:06.974Z,1999.90
2024-03-06T21:52:38.929Z,1999.90
2024-03-06T21:55:12.265Z,1999.90
2024-03-06T21:57:44.028Z,1999.90
2024-03-06T22:00:16.313Z,1999.90
2024-03-06T22:02:48.350Z,1999.90
2024-03-06T22:05:20.285Z,1999.90
2024-03-06T22:07:52.365Z,1999.90
2024-03-06T22:10:26.045Z,1999.90
2024-03-06T22:12:57.806Z,1999.90
2024-03-06T22:15:29.979Z,1999.90
2024-03-06T22:18:01.868Z,1999.90
2024-03-06T22:20:33.716Z,1999.90
2024-03-06T22:23:05.466Z,1999.90
2024-03-06T22:25:37.286Z,1999.90
2024-03-06T22:28:12.508Z,1999.90
2024-03-06T22:30:46.313Z,1999.90
2024-03-06T22:33:18.324Z,1999.90
2024-03-06T22:35:50.398Z,1999.90
2024-03-06T22:38:22.226Z,1999.90
2024-03-06T22:40:54.076Z,1999.90
2024-03-06T22:43:25.873Z,1999.90
2024-03-06T22:45:57.625Z,1999.90
2024-03-06T22:48:29.394Z,1999.90
2024-03-06T22:51:01.178Z,1999.90
2024-03-06T22:53:33.269Z,1999.90
2024-03-06T22:56:05.455Z,1999.90
2024-03-06T22:58:37.205Z,1999.90
2024-03-06T23:01:08.954Z,1999.90
2024-03-06T23:03:40.828Z,1999.90
2024-03-06T23:06:12.622Z,1999.90
2024-03-06T23:08:45.350Z,1999.90
2024-03-06T23:11:17.782Z,1999.90
2024-03-06T23:13:49.615Z,1999.90
2024-03-06T23:16:21.367Z,1999.90
2024-03-06T23:18:53.437Z,1999.90
2024-03-06T23:21:25.284Z,1999.90
2024-03-06T23:23:57.780Z,1999.90
2024-03-06T23:26:29.584Z,710.43
2024-03-06T23:29:01.322Z,65.77
2024-03-06T23:31:33.225Z,63.37
2024-03-06T23:34:05.010Z,65.10
2024-03-06T23:36:36.769Z,59.30
2024-03-06T23:39:09.814Z,60.60
2024-03-06T23:41:41.791Z,64.10
2024-03-06T23:44:13.597Z,63.03
2024-03-06T23:46:45.529Z,54.47
2024-03-06T23:49:17.291Z,58.80
2024-03-06T23:51:50.109Z,56.90
2024-03-06T23:54:22.519Z,63.47
2024-03-06T23:56:54.365Z,60.33
2024-03-06T23:59:29.016Z,56.33
